This is the latest recevied weather packets stored in our database for station/object KG4K-13. If no packets are shown the sender has not sent any weather packets the latest 10 day(s).
| Time | Temp. | Humidity | Pressure | Rain* | Wind** | Luminosity | Snow |
|---|---|---|---|---|---|---|---|
| 1778192116 | 17.22° C | 53% | 1009.5 hPa | 0 mm | - | 255 W/m² | - |
| 1778189736 | 16.67° C | 52% | 1009.7 hPa | 0 mm | - | 379 W/m² | - |
| 1778187917 | 16.67° C | 55% | 1009.8 hPa | 0 mm | - | 145 W/m² | - |
| 1778183718 | 17.78° C | 53% | 1009.7 hPa | 0 mm | - | 751 W/m² | - |
| 1778182515 | 17.22° C | 54% | 1010.3 hPa | 0 mm | - | 840 W/m² | - |
| 1778180116 | 16.11° C | 54% | 1010.7 hPa | 0 mm | - | 766 W/m² | - |
| 1778178917 | 16.67° C | 55% | 1010.9 hPa | 0.25 mm | - | 511 W/m² | - |
| 1778167517 | 13.33° C | 55% | 1012.6 hPa | 0 mm | - | 228 W/m² | - |
| 1778163941 | 13.33° C | 52% | 1013.1 hPa | 0 mm | - | 174 W/m² | - |
| 1778159115 | 12.78° C | 61% | 1013.4 hPa | 0 mm | - | 106 W/m² | - |
| 1778158536 | 12.78° C | 63% | 1013.4 hPa | 0 mm | - | 57 W/m² | - |
| 1778155519 | 12.78° C | 73% | 1013 hPa | 0 mm | - | 128 W/m² | - |
| 1778148321 | 12.22° C | 91% | 1012.2 hPa | 0 mm | - | 1 W/m² | - |
| 1778138741 | 13.33° C | 90% | 1010.8 hPa | 0 mm | - | 0 W/m² | - |
| 1778133325 | 14.44° C | 93% | 1010.8 hPa | 8.64 mm | - | 0 W/m² | - |
| 1778131517 | 16.11° C | 89% | 1010.8 hPa | 6.86 mm | - | 0 W/m² | - |
| 1778129117 | 18.33° C | 78% | 1010.8 hPa | 0 mm | - | 0 W/m² | - |
| 1778114718 | 19.44° C | 84% | 1009.5 hPa | 0 mm | - | 0 W/m² | - |
| 1778114115 | 19.44° C | 84% | 1009.5 hPa | 0 mm | - | 0 W/m² | - |
| 1778111116 | 20.56° C | 79% | 1009.2 hPa | 0 mm | - | 6 W/m² | - |
| 1778109337 | 21.11° C | 78% | 1008.9 hPa | 0 mm | - | 82 W/m² | - |
| 1778106917 | 21.67° C | 76% | 1008.9 hPa | 0 mm | - | 84 W/m² | - |
| 1778103915 | 22.22° C | 74% | 1008.9 hPa | 0 mm | - | 116 W/m² | - |
| 1778102716 | 21.67° C | 75% | 1008.8 hPa | 0 mm | - | 201 W/m² | - |
| 1778101516 | 21.67° C | 75% | 1008.5 hPa | 0 mm | - | 174 W/m² | - |
* Rain latest hour (hover to see other rain measurements)
** Current wind speed in m/s (hover to see current wind gust speed)